Meteoalarm Info


My Other Sites:

Weather34 Aurora MKIIsikeawx.alinos.eu

SYKIA METEOTEMPLATEsykiameteo.alinos.eu

alinos.eualinos.eu



Nearby METAR Reports

   
LGEL - Elefsis (hel-Afb, Greece
Distance from station: E 77 km
Updated: 07-12-2022 07:20
Mostly Cloudy  
Mostly Cloudy  
   Wind: Calm
Wind: Calm
Temperature: 13°C
Dew Point: 10°C
Humidity: 82%
Barometer: 1016 hPa
Clouds: Mostly Cloudy
Visibility: More than 10 km
Cloud details: Partly Cloudy 2500 ft,
Mostly Cloudy 7000 ft
LGEL 070520Z 00000KT 9999 SCT025 BKN070 13/10 Q1016
LGRX - Araxos (civ/Afb), Greece
Distance from station: W 110 km
Updated: 07-12-2022 07:20
Mostly Cloudy  
Mostly Cloudy  
   Wind: Calm
Wind: Calm
Temperature: 13°C
Dew Point: 12°C
Humidity: 94%
Barometer: 1015 hPa
Clouds: Mostly Cloudy
Visibility: More than 10 km
Cloud details: Few Clouds 1800 ft,
Mostly Cloudy 2500 ft,
Mostly Cloudy 8000 ft
LGRX 070520Z 00000KT 9999 FEW018TCU BKN025 BKN080 13/12 Q1015 RETS
LGAV - Athens/Elef-Ven, Greece
Distance from station: E 113 km
Updated: 07-12-2022 07:20
Few Clouds  
Few Clouds  
   Wind: Calm
Wind: Calm
Temperature: 10°C
Dew Point: 7°C
Humidity: 82%
Barometer: 1017 hPa
Clouds: Few Clouds
Visibility: More than 10 km
Cloud details: Few Clouds 3000 ft
LGAV 070520Z 00000KT 9999 FEW030 10/07 Q1017 NOSIG
LGAD - Andravida (civ/A, Greece
Distance from station: W 124 km
Updated: 07-12-2022 07:20
Drizzle, Mostly Cloudy  
Drizzle, Mostly Cloudy  
   Wind: varies 5.6 km/h
Wind: varies 5.6 km/h
Temperature: 13°C
Dew Point: 11°C
Humidity: 88%
Barometer: 1015 hPa
Clouds: Mostly Cloudy
Visibility: More than 10 km
Cloud details: Few Clouds 1600 ft,
Partly Cloudy 2500 ft,
Mostly Cloudy 8000 ft
LGAD 070520Z VRB03KT 9999 DZ FEW016TCU SCT025 BKN080 13/11 Q1015
LGKL - Kalamata (hel-Af, Greece
Distance from station: SSW 124 km
Updated: 07-12-2022 07:20
Mist, Partly Cloudy  
Mist, Partly Cloudy  
   Wind: NNW 9.3 km/h
Wind: NNW 9.3 km/h
Temperature: 10°C
Wind Chill: 9°C
Dew Point: 9°C
Humidity: 94%
Barometer: 1016 hPa
Clouds: Partly Cloudy
Visibility: 8 km
Cloud details: Few Clouds 3000 ft,
Partly Cloudy 8000 ft
LGKL 070520Z 34005KT 8000 4000SE BR FEW030 SCT080 10/09 Q1016
LGBL - Nea Anchialos, Greece
Distance from station: N 129 km
Updated: 07-12-2022 07:20
Light Rain, Mostly Cloudy  
Light Rain, Mostly Cloudy  
   Wind: Calm
Wind: Calm
Temperature: 12°C
Dew Point: 11°C
Humidity: 94%
Barometer: 1016 hPa
Clouds: Mostly Cloudy
Visibility: More than 10 km
Cloud details: Few Clouds 1000 ft,
Mostly Cloudy 3000 ft,
Mostly Cloudy 7000 ft
LGBL 070520Z 00000KT 9999 -RA FEW010 BKN030 BKN070 12/11 Q1016

Script developed by  Saratoga-weather.org Adapted for the template by  Weerstation Leuven

You find our weather info also at:

European Weather Network

Weather Underground

AWEKAS

Citizen Weather Observer Program (CWOP)

UK Metoffice

Equipment we use:

Weather-station
Davis Wireless Vantage Pro2

Davis Wireless Vantage Pro2